sensor_id;sensor_type;location;lat;lon;timestamp;P1;durP1;ratioP1;P2;durP2;ratioP2
47896;SDS011;39629;51.400;5.494;2022-12-08T00:04:42;19.88;;;10.07;;
47896;SDS011;39629;51.400;5.494;2022-12-08T00:09:59;17.80;;;9.75;;
47896;SDS011;39629;51.400;5.494;2022-12-08T00:15:00;20.98;;;10.32;;
47896;SDS011;39629;51.400;5.494;2022-12-08T00:20:02;20.08;;;9.85;;
47896;SDS011;39629;51.400;5.494;2022-12-08T00:25:06;18.58;;;9.52;;
47896;SDS011;39629;51.400;5.494;2022-12-08T00:30:08;18.73;;;10.67;;
47896;SDS011;39629;51.400;5.494;2022-12-08T00:35:10;26.67;;;13.02;;
47896;SDS011;39629;51.400;5.494;2022-12-08T00:45:16;25.70;;;12.32;;
47896;SDS011;39629;51.400;5.494;2022-12-08T00:50:18;25.55;;;11.95;;
47896;SDS011;39629;51.400;5.494;2022-12-08T00:55:21;26.08;;;12.70;;
47896;SDS011;39629;51.400;5.494;2022-12-08T01:00:22;30.33;;;12.30;;
47896;SDS011;39629;51.400;5.494;2022-12-08T01:05:24;21.95;;;11.00;;
47896;SDS011;39629;51.400;5.494;2022-12-08T01:10:27;25.00;;;12.65;;
47896;SDS011;39629;51.400;5.494;2022-12-08T01:15:29;25.85;;;12.07;;
47896;SDS011;39629;51.400;5.494;2022-12-08T01:20:30;25.05;;;12.70;;
47896;SDS011;39629;51.400;5.494;2022-12-08T01:25:34;21.80;;;11.02;;
47896;SDS011;39629;51.400;5.494;2022-12-08T01:30:36;20.38;;;10.85;;
47896;SDS011;39629;51.400;5.494;2022-12-08T01:35:38;23.27;;;11.07;;
47896;SDS011;39629;51.400;5.494;2022-12-08T01:40:41;19.13;;;9.52;;
47896;SDS011;39629;51.400;5.494;2022-12-08T01:45:43;22.25;;;10.27;;
47896;SDS011;39629;51.400;5.494;2022-12-08T01:50:45;21.60;;;10.35;;
47896;SDS011;39629;51.400;5.494;2022-12-08T01:55:49;33.65;;;17.02;;
47896;SDS011;39629;51.400;5.494;2022-12-08T02:00:55;25.27;;;12.10;;
47896;SDS011;39629;51.400;5.494;2022-12-08T02:05:57;17.83;;;9.43;;
47896;SDS011;39629;51.400;5.494;2022-12-08T02:11:00;16.77;;;8.82;;
47896;SDS011;39629;51.400;5.494;2022-12-08T02:16:02;17.38;;;8.50;;
47896;SDS011;39629;51.400;5.494;2022-12-08T02:21:10;14.07;;;7.65;;
47896;SDS011;39629;51.400;5.494;2022-12-08T02:32:02;14.43;;;7.00;;
47896;SDS011;39629;51.400;5.494;2022-12-08T02:37:25;13.27;;;6.82;;
47896;SDS011;39629;51.400;5.494;2022-12-08T02:42:31;12.00;;;6.65;;
47896;SDS011;39629;51.400;5.494;2022-12-08T02:47:38;10.32;;;5.40;;
47896;SDS011;39629;51.400;5.494;2022-12-08T02:52:43;11.55;;;5.93;;
47896;SDS011;39629;51.400;5.494;2022-12-08T02:57:50;11.77;;;6.47;;
47896;SDS011;39629;51.400;5.494;2022-12-08T03:02:59;12.07;;;6.43;;
47896;SDS011;39629;51.400;5.494;2022-12-08T03:08:11;13.07;;;6.43;;
47896;SDS011;39629;51.400;5.494;2022-12-08T03:13:21;11.25;;;6.45;;
47896;SDS011;39629;51.400;5.494;2022-12-08T03:18:26;13.98;;;6.53;;
47896;SDS011;39629;51.400;5.494;2022-12-08T03:23:33;14.15;;;6.28;;
47896;SDS011;39629;51.400;5.494;2022-12-08T03:28:36;14.65;;;7.82;;
47896;SDS011;39629;51.400;5.494;2022-12-08T03:33:39;16.23;;;8.25;;
47896;SDS011;39629;51.400;5.494;2022-12-08T03:38:45;19.63;;;10.07;;
47896;SDS011;39629;51.400;5.494;2022-12-08T03:43:52;19.83;;;10.05;;
47896;SDS011;39629;51.400;5.494;2022-12-08T03:48:56;21.90;;;10.82;;
47896;SDS011;39629;51.400;5.494;2022-12-08T03:53:59;30.05;;;13.07;;
47896;SDS011;39629;51.400;5.494;2022-12-08T03:59:00;25.73;;;12.68;;
47896;SDS011;39629;51.400;5.494;2022-12-08T04:04:02;29.15;;;13.88;;
47896;SDS011;39629;51.400;5.494;2022-12-08T04:09:06;26.23;;;12.50;;
47896;SDS011;39629;51.400;5.494;2022-12-08T04:14:07;27.15;;;12.80;;
47896;SDS011;39629;51.400;5.494;2022-12-08T04:19:09;30.13;;;13.45;;
47896;SDS011;39629;51.400;5.494;2022-12-08T04:24:12;25.65;;;11.77;;
47896;SDS011;39629;51.400;5.494;2022-12-08T04:29:14;27.30;;;12.75;;
47896;SDS011;39629;51.400;5.494;2022-12-08T04:34:16;25.52;;;12.07;;
47896;SDS011;39629;51.400;5.494;2022-12-08T04:39:18;24.13;;;11.27;;
47896;SDS011;39629;51.400;5.494;2022-12-08T04:44:20;21.35;;;10.60;;
47896;SDS011;39629;51.400;5.494;2022-12-08T04:49:22;21.48;;;10.73;;
47896;SDS011;39629;51.400;5.494;2022-12-08T04:54:25;17.73;;;8.20;;
47896;SDS011;39629;51.400;5.494;2022-12-08T04:59:27;18.20;;;9.20;;
47896;SDS011;39629;51.400;5.494;2022-12-08T05:04:29;19.08;;;9.20;;
47896;SDS011;39629;51.400;5.494;2022-12-08T05:09:32;17.95;;;8.55;;
47896;SDS011;39629;51.400;5.494;2022-12-08T05:14:33;15.68;;;8.15;;
47896;SDS011;39629;51.400;5.494;2022-12-08T05:19:35;14.75;;;7.80;;
47896;SDS011;39629;51.400;5.494;2022-12-08T05:24:38;14.73;;;8.40;;
47896;SDS011;39629;51.400;5.494;2022-12-08T05:29:39;16.50;;;8.35;;
47896;SDS011;39629;51.400;5.494;2022-12-08T05:34:41;17.30;;;8.35;;
47896;SDS011;39629;51.400;5.494;2022-12-08T05:39:44;13.80;;;7.32;;
47896;SDS011;39629;51.400;5.494;2022-12-08T05:44:46;15.15;;;7.13;;
47896;SDS011;39629;51.400;5.494;2022-12-08T05:49:47;11.27;;;6.22;;
47896;SDS011;39629;51.400;5.494;2022-12-08T05:54:51;8.60;;;4.88;;
47896;SDS011;39629;51.400;5.494;2022-12-08T05:59:52;7.13;;;3.38;;
47896;SDS011;39629;51.400;5.494;2022-12-08T06:04:54;7.85;;;3.65;;
47896;SDS011;39629;51.400;5.494;2022-12-08T06:09:57;6.05;;;3.40;;
47896;SDS011;39629;51.400;5.494;2022-12-08T06:14:59;7.32;;;3.35;;
47896;SDS011;39629;51.400;5.494;2022-12-08T06:20:00;8.45;;;4.10;;
47896;SDS011;39629;51.400;5.494;2022-12-08T06:25:04;9.70;;;4.80;;
47896;SDS011;39629;51.400;5.494;2022-12-08T06:30:06;10.27;;;5.40;;
47896;SDS011;39629;51.400;5.494;2022-12-08T06:35:08;11.75;;;5.82;;
47896;SDS011;39629;51.400;5.494;2022-12-08T06:40:12;14.38;;;7.47;;
47896;SDS011;39629;51.400;5.494;2022-12-08T06:45:15;16.70;;;8.63;;
47896;SDS011;39629;51.400;5.494;2022-12-08T06:50:17;15.75;;;7.53;;
47896;SDS011;39629;51.400;5.494;2022-12-08T06:55:21;18.23;;;8.55;;
47896;SDS011;39629;51.400;5.494;2022-12-08T07:00:22;22.17;;;10.05;;
47896;SDS011;39629;51.400;5.494;2022-12-08T07:05:24;20.58;;;9.88;;
47896;SDS011;39629;51.400;5.494;2022-12-08T07:10:27;20.80;;;10.60;;
47896;SDS011;39629;51.400;5.494;2022-12-08T07:15:29;20.85;;;9.93;;
47896;SDS011;39629;51.400;5.494;2022-12-08T07:20:30;16.50;;;8.48;;
47896;SDS011;39629;51.400;5.494;2022-12-08T07:25:33;15.02;;;7.93;;
47896;SDS011;39629;51.400;5.494;2022-12-08T07:30:35;16.98;;;7.95;;
47896;SDS011;39629;51.400;5.494;2022-12-08T07:35:37;18.50;;;9.05;;
47896;SDS011;39629;51.400;5.494;2022-12-08T07:40:40;15.18;;;7.80;;
47896;SDS011;39629;51.400;5.494;2022-12-08T07:45:42;16.70;;;8.20;;
47896;SDS011;39629;51.400;5.494;2022-12-08T07:50:44;15.25;;;7.43;;
47896;SDS011;39629;51.400;5.494;2022-12-08T07:55:47;16.48;;;7.90;;
47896;SDS011;39629;51.400;5.494;2022-12-08T08:00:49;17.92;;;7.90;;
47896;SDS011;39629;51.400;5.494;2022-12-08T08:05:51;16.80;;;7.10;;
47896;SDS011;39629;51.400;5.494;2022-12-08T08:10:54;13.73;;;7.15;;
47896;SDS011;39629;51.400;5.494;2022-12-08T08:16:01;12.85;;;6.95;;
47896;SDS011;39629;51.400;5.494;2022-12-08T08:21:03;13.43;;;6.53;;
47896;SDS011;39629;51.400;5.494;2022-12-08T08:26:07;13.85;;;6.72;;
47896;SDS011;39629;51.400;5.494;2022-12-08T08:31:09;12.88;;;7.20;;
47896;SDS011;39629;51.400;5.494;2022-12-08T08:36:11;13.63;;;7.18;;
47896;SDS011;39629;51.400;5.494;2022-12-08T08:41:14;16.25;;;7.18;;
47896;SDS011;39629;51.400;5.494;2022-12-08T08:46:15;16.33;;;7.45;;
47896;SDS011;39629;51.400;5.494;2022-12-08T08:51:17;14.75;;;6.90;;
47896;SDS011;39629;51.400;5.494;2022-12-08T08:56:20;14.85;;;8.55;;
47896;SDS011;39629;51.400;5.494;2022-12-08T09:01:23;15.85;;;8.35;;
47896;SDS011;39629;51.400;5.494;2022-12-08T09:06:26;15.35;;;8.77;;
47896;SDS011;39629;51.400;5.494;2022-12-08T09:11:29;19.73;;;8.75;;
47896;SDS011;39629;51.400;5.494;2022-12-08T09:16:31;18.93;;;7.87;;
47896;SDS011;39629;51.400;5.494;2022-12-08T09:21:33;16.15;;;8.02;;
47896;SDS011;39629;51.400;5.494;2022-12-08T09:26:36;13.65;;;8.02;;
47896;SDS011;39629;51.400;5.494;2022-12-08T09:31:38;19.15;;;7.82;;
47896;SDS011;39629;51.400;5.494;2022-12-08T09:36:40;17.05;;;8.38;;
47896;SDS011;39629;51.400;5.494;2022-12-08T09:41:44;15.48;;;7.40;;
47896;SDS011;39629;51.400;5.494;2022-12-08T09:46:50;17.65;;;8.90;;
47896;SDS011;39629;51.400;5.494;2022-12-08T09:51:53;18.77;;;8.35;;
47896;SDS011;39629;51.400;5.494;2022-12-08T09:56:57;19.52;;;7.70;;
47896;SDS011;39629;51.400;5.494;2022-12-08T10:02:01;14.65;;;7.78;;
47896;SDS011;39629;51.400;5.494;2022-12-08T10:07:19;15.80;;;8.15;;
47896;SDS011;39629;51.400;5.494;2022-12-08T10:12:32;15.98;;;7.85;;
47896;SDS011;39629;51.400;5.494;2022-12-08T10:17:43;14.70;;;7.45;;
47896;SDS011;39629;51.400;5.494;2022-12-08T10:22:48;12.32;;;6.75;;
47896;SDS011;39629;51.400;5.494;2022-12-08T10:27:57;13.30;;;7.10;;
47896;SDS011;39629;51.400;5.494;2022-12-08T10:32:59;13.07;;;6.63;;
47896;SDS011;39629;51.400;5.494;2022-12-08T10:38:01;13.52;;;6.60;;
47896;SDS011;39629;51.400;5.494;2022-12-08T10:48:15;14.82;;;6.38;;
47896;SDS011;39629;51.400;5.494;2022-12-08T10:53:20;13.85;;;6.07;;
47896;SDS011;39629;51.400;5.494;2022-12-08T10:58:29;11.13;;;6.60;;
47896;SDS011;39629;51.400;5.494;2022-12-08T11:03:34;14.45;;;6.25;;
47896;SDS011;39629;51.400;5.494;2022-12-08T11:08:45;15.63;;;6.30;;
47896;SDS011;39629;51.400;5.494;2022-12-08T11:13:51;13.38;;;6.65;;
47896;SDS011;39629;51.400;5.494;2022-12-08T11:18:55;13.50;;;6.90;;
47896;SDS011;39629;51.400;5.494;2022-12-08T11:23:58;11.75;;;6.70;;
47896;SDS011;39629;51.400;5.494;2022-12-08T11:29:19;15.23;;;6.82;;
47896;SDS011;39629;51.400;5.494;2022-12-08T11:34:26;12.73;;;6.22;;
47896;SDS011;39629;51.400;5.494;2022-12-08T11:39:34;14.35;;;6.35;;
47896;SDS011;39629;51.400;5.494;2022-12-08T11:44:48;9.85;;;5.65;;
47896;SDS011;39629;51.400;5.494;2022-12-08T11:49:53;9.38;;;5.97;;
47896;SDS011;39629;51.400;5.494;2022-12-08T11:55:03;12.68;;;6.15;;
47896;SDS011;39629;51.400;5.494;2022-12-08T12:05:34;11.57;;;5.72;;
47896;SDS011;39629;51.400;5.494;2022-12-08T12:10:52;13.40;;;7.10;;
47896;SDS011;39629;51.400;5.494;2022-12-08T12:16:13;13.27;;;6.78;;
47896;SDS011;39629;51.400;5.494;2022-12-08T12:21:35;13.43;;;6.43;;
47896;SDS011;39629;51.400;5.494;2022-12-08T12:26:48;11.80;;;6.20;;
47896;SDS011;39629;51.400;5.494;2022-12-08T12:37:03;11.32;;;6.22;;
47896;SDS011;39629;51.400;5.494;2022-12-08T12:42:07;12.90;;;6.05;;
47896;SDS011;39629;51.400;5.494;2022-12-08T12:47:45;11.50;;;6.47;;
47896;SDS011;39629;51.400;5.494;2022-12-08T12:52:48;11.00;;;6.05;;
47896;SDS011;39629;51.400;5.494;2022-12-08T12:57:50;10.20;;;5.40;;
47896;SDS011;39629;51.400;5.494;2022-12-08T13:02:54;10.80;;;5.60;;
47896;SDS011;39629;51.400;5.494;2022-12-08T13:07:58;9.85;;;5.13;;
47896;SDS011;39629;51.400;5.494;2022-12-08T13:13:06;10.23;;;5.75;;
47896;SDS011;39629;51.400;5.494;2022-12-08T13:23:27;9.30;;;5.82;;
47896;SDS011;39629;51.400;5.494;2022-12-08T13:34:21;10.52;;;5.82;;
47896;SDS011;39629;51.400;5.494;2022-12-08T13:39:29;10.95;;;5.43;;
47896;SDS011;39629;51.400;5.494;2022-12-08T13:44:36;8.27;;;5.38;;
47896;SDS011;39629;51.400;5.494;2022-12-08T13:49:47;9.32;;;4.95;;
47896;SDS011;39629;51.400;5.494;2022-12-08T13:54:53;7.78;;;4.82;;
47896;SDS011;39629;51.400;5.494;2022-12-08T13:59:58;7.95;;;4.60;;
47896;SDS011;39629;51.400;5.494;2022-12-08T14:05:02;5.63;;;3.70;;
47896;SDS011;39629;51.400;5.494;2022-12-08T14:10:06;7.75;;;3.83;;
47896;SDS011;39629;51.400;5.494;2022-12-08T14:15:10;6.45;;;3.45;;
47896;SDS011;39629;51.400;5.494;2022-12-08T14:20:18;6.05;;;3.40;;
47896;SDS011;39629;51.400;5.494;2022-12-08T14:25:24;4.00;;;2.90;;
47896;SDS011;39629;51.400;5.494;2022-12-08T14:30:29;5.00;;;3.37;;
47896;SDS011;39629;51.400;5.494;2022-12-08T14:35:35;6.78;;;3.90;;
47896;SDS011;39629;51.400;5.494;2022-12-08T14:40:38;6.47;;;3.72;;
47896;SDS011;39629;51.400;5.494;2022-12-08T14:45:44;5.28;;;3.17;;
47896;SDS011;39629;51.400;5.494;2022-12-08T14:50:56;3.65;;;2.30;;
47896;SDS011;39629;51.400;5.494;2022-12-08T14:56:04;3.93;;;2.37;;
47896;SDS011;39629;51.400;5.494;2022-12-08T15:01:10;3.90;;;2.30;;
47896;SDS011;39629;51.400;5.494;2022-12-08T15:06:15;3.40;;;2.30;;
47896;SDS011;39629;51.400;5.494;2022-12-08T15:11:25;2.97;;;2.00;;
47896;SDS011;39629;51.400;5.494;2022-12-08T15:16:37;4.35;;;2.20;;
47896;SDS011;39629;51.400;5.494;2022-12-08T15:21:41;4.22;;;2.40;;
47896;SDS011;39629;51.400;5.494;2022-12-08T15:26:45;5.28;;;2.63;;
47896;SDS011;39629;51.400;5.494;2022-12-08T15:31:48;4.72;;;3.20;;
47896;SDS011;39629;51.400;5.494;2022-12-08T15:36:53;5.43;;;3.33;;
47896;SDS011;39629;51.400;5.494;2022-12-08T15:41:55;6.53;;;3.47;;
47896;SDS011;39629;51.400;5.494;2022-12-08T15:46:56;6.80;;;4.18;;
47896;SDS011;39629;51.400;5.494;2022-12-08T15:52:00;6.72;;;4.20;;
47896;SDS011;39629;51.400;5.494;2022-12-08T15:57:02;7.05;;;4.22;;
47896;SDS011;39629;51.400;5.494;2022-12-08T16:02:04;9.25;;;5.13;;
47896;SDS011;39629;51.400;5.494;2022-12-08T16:07:09;8.93;;;5.07;;
47896;SDS011;39629;51.400;5.494;2022-12-08T16:12:20;8.10;;;5.20;;
47896;SDS011;39629;51.400;5.494;2022-12-08T16:17:40;8.20;;;5.38;;
47896;SDS011;39629;51.400;5.494;2022-12-08T16:22:43;10.15;;;6.40;;
47896;SDS011;39629;51.400;5.494;2022-12-08T16:27:45;10.85;;;5.80;;
47896;SDS011;39629;51.400;5.494;2022-12-08T16:32:48;9.57;;;6.15;;
47896;SDS011;39629;51.400;5.494;2022-12-08T16:37:51;10.43;;;6.07;;
47896;SDS011;39629;51.400;5.494;2022-12-08T16:42:53;10.57;;;6.53;;
47896;SDS011;39629;51.400;5.494;2022-12-08T16:47:55;10.35;;;6.43;;
47896;SDS011;39629;51.400;5.494;2022-12-08T16:53:00;9.70;;;6.63;;
47896;SDS011;39629;51.400;5.494;2022-12-08T16:58:04;9.88;;;5.63;;
47896;SDS011;39629;51.400;5.494;2022-12-08T17:03:06;9.38;;;5.18;;
47896;SDS011;39629;51.400;5.494;2022-12-08T17:08:09;8.90;;;5.43;;
47896;SDS011;39629;51.400;5.494;2022-12-08T17:18:16;11.30;;;6.47;;
47896;SDS011;39629;51.400;5.494;2022-12-08T17:23:19;10.13;;;6.43;;
47896;SDS011;39629;51.400;5.494;2022-12-08T17:28:20;9.63;;;6.28;;
47896;SDS011;39629;51.400;5.494;2022-12-08T17:33:22;10.55;;;6.10;;
47896;SDS011;39629;51.400;5.494;2022-12-08T17:38:25;11.48;;;6.88;;
47896;SDS011;39629;51.400;5.494;2022-12-08T17:43:28;11.57;;;6.90;;
47896;SDS011;39629;51.400;5.494;2022-12-08T17:48:30;12.25;;;7.10;;
47896;SDS011;39629;51.400;5.494;2022-12-08T17:53:35;13.90;;;6.88;;
47896;SDS011;39629;51.400;5.494;2022-12-08T17:58:39;13.30;;;7.45;;
47896;SDS011;39629;51.400;5.494;2022-12-08T18:03:40;15.52;;;8.43;;
47896;SDS011;39629;51.400;5.494;2022-12-08T18:08:43;10.40;;;6.18;;
47896;SDS011;39629;51.400;5.494;2022-12-08T18:13:46;11.80;;;6.78;;
47896;SDS011;39629;51.400;5.494;2022-12-08T18:18:48;12.15;;;6.70;;
47896;SDS011;39629;51.400;5.494;2022-12-08T18:23:51;10.63;;;6.28;;
47896;SDS011;39629;51.400;5.494;2022-12-08T18:28:53;12.82;;;6.25;;
47896;SDS011;39629;51.400;5.494;2022-12-08T18:33:55;13.27;;;6.70;;
47896;SDS011;39629;51.400;5.494;2022-12-08T18:38:58;12.27;;;6.55;;
47896;SDS011;39629;51.400;5.494;2022-12-08T18:43:59;11.38;;;6.10;;
47896;SDS011;39629;51.400;5.494;2022-12-08T18:49:01;10.52;;;5.90;;
47896;SDS011;39629;51.400;5.494;2022-12-08T18:54:04;10.75;;;6.25;;
47896;SDS011;39629;51.400;5.494;2022-12-08T18:59:06;12.05;;;6.45;;
47896;SDS011;39629;51.400;5.494;2022-12-08T19:04:11;9.93;;;5.75;;
47896;SDS011;39629;51.400;5.494;2022-12-08T19:09:14;12.82;;;6.60;;
47896;SDS011;39629;51.400;5.494;2022-12-08T19:14:15;10.88;;;5.35;;
47896;SDS011;39629;51.400;5.494;2022-12-08T19:19:17;11.35;;;6.40;;
47896;SDS011;39629;51.400;5.494;2022-12-08T19:24:21;12.68;;;6.43;;
47896;SDS011;39629;51.400;5.494;2022-12-08T19:29:23;10.23;;;5.93;;
47896;SDS011;39629;51.400;5.494;2022-12-08T19:34:25;10.70;;;6.07;;
47896;SDS011;39629;51.400;5.494;2022-12-08T19:39:28;9.93;;;5.32;;
47896;SDS011;39629;51.400;5.494;2022-12-08T19:44:48;13.82;;;5.68;;
47896;SDS011;39629;51.400;5.494;2022-12-08T19:55:16;10.57;;;5.35;;
47896;SDS011;39629;51.400;5.494;2022-12-08T20:00:18;9.52;;;5.15;;
47896;SDS011;39629;51.400;5.494;2022-12-08T20:05:20;11.45;;;6.20;;
47896;SDS011;39629;51.400;5.494;2022-12-08T20:10:24;10.65;;;6.20;;
47896;SDS011;39629;51.400;5.494;2022-12-08T20:15:28;9.52;;;5.32;;
47896;SDS011;39629;51.400;5.494;2022-12-08T20:20:29;12.38;;;6.25;;
47896;SDS011;39629;51.400;5.494;2022-12-08T20:25:32;11.00;;;5.75;;
47896;SDS011;39629;51.400;5.494;2022-12-08T20:30:36;12.73;;;7.22;;
47896;SDS011;39629;51.400;5.494;2022-12-08T20:35:38;15.38;;;7.80;;
47896;SDS011;39629;51.400;5.494;2022-12-08T20:40:41;12.20;;;7.00;;
47896;SDS011;39629;51.400;5.494;2022-12-08T20:45:45;14.27;;;7.18;;
47896;SDS011;39629;51.400;5.494;2022-12-08T20:50:48;11.50;;;6.38;;
47896;SDS011;39629;51.400;5.494;2022-12-08T20:55:51;13.98;;;7.63;;
47896;SDS011;39629;51.400;5.494;2022-12-08T21:00:53;10.95;;;6.25;;
47896;SDS011;39629;51.400;5.494;2022-12-08T21:05:55;11.75;;;7.13;;
47896;SDS011;39629;51.400;5.494;2022-12-08T21:10:59;14.80;;;8.05;;
47896;SDS011;39629;51.400;5.494;2022-12-08T21:16:01;17.13;;;8.20;;
47896;SDS011;39629;51.400;5.494;2022-12-08T21:21:03;16.20;;;8.57;;
47896;SDS011;39629;51.400;5.494;2022-12-08T21:26:09;16.85;;;9.70;;
47896;SDS011;39629;51.400;5.494;2022-12-08T21:31:13;16.60;;;8.98;;
47896;SDS011;39629;51.400;5.494;2022-12-08T21:36:18;14.40;;;7.95;;
47896;SDS011;39629;51.400;5.494;2022-12-08T21:41:22;19.43;;;9.83;;
47896;SDS011;39629;51.400;5.494;2022-12-08T21:46:38;19.90;;;9.80;;
47896;SDS011;39629;51.400;5.494;2022-12-08T21:51:40;19.85;;;9.93;;
47896;SDS011;39629;51.400;5.494;2022-12-08T21:56:43;20.15;;;10.13;;
47896;SDS011;39629;51.400;5.494;2022-12-08T22:01:45;24.13;;;10.35;;
47896;SDS011;39629;51.400;5.494;2022-12-08T22:06:47;19.92;;;10.20;;
47896;SDS011;39629;51.400;5.494;2022-12-08T22:11:50;18.83;;;10.25;;
47896;SDS011;39629;51.400;5.494;2022-12-08T22:16:52;23.08;;;11.23;;
47896;SDS011;39629;51.400;5.494;2022-12-08T22:21:53;23.42;;;11.52;;
47896;SDS011;39629;51.400;5.494;2022-12-08T22:26:57;18.65;;;9.80;;
47896;SDS011;39629;51.400;5.494;2022-12-08T22:31:59;19.95;;;10.35;;
47896;SDS011;39629;51.400;5.494;2022-12-08T22:37:00;22.02;;;11.05;;
47896;SDS011;39629;51.400;5.494;2022-12-08T22:42:04;20.88;;;11.05;;
47896;SDS011;39629;51.400;5.494;2022-12-08T22:47:05;20.30;;;10.25;;
47896;SDS011;39629;51.400;5.494;2022-12-08T22:52:07;18.42;;;10.40;;
47896;SDS011;39629;51.400;5.494;2022-12-08T22:57:10;23.38;;;11.35;;
47896;SDS011;39629;51.400;5.494;2022-12-08T23:02:12;22.30;;;11.27;;
47896;SDS011;39629;51.400;5.494;2022-12-08T23:07:14;18.77;;;10.23;;
47896;SDS011;39629;51.400;5.494;2022-12-08T23:12:17;19.08;;;9.75;;
47896;SDS011;39629;51.400;5.494;2022-12-08T23:17:18;17.85;;;9.77;;
47896;SDS011;39629;51.400;5.494;2022-12-08T23:22:20;19.00;;;9.73;;
47896;SDS011;39629;51.400;5.494;2022-12-08T23:27:23;19.10;;;10.32;;
47896;SDS011;39629;51.400;5.494;2022-12-08T23:32:24;17.90;;;9.27;;
47896;SDS011;39629;51.400;5.494;2022-12-08T23:37:26;20.67;;;10.52;;
47896;SDS011;39629;51.400;5.494;2022-12-08T23:42:30;19.20;;;10.00;;
47896;SDS011;39629;51.400;5.494;2022-12-08T23:47:31;17.58;;;9.70;;
47896;SDS011;39629;51.400;5.494;2022-12-08T23:52:33;19.17;;;9.35;;
47896;SDS011;39629;51.400;5.494;2022-12-08T23:57:36;21.70;;;10.65;;
